sensor_id;sensor_type;location;lat;lon;timestamp;temperature;humidity
22426;DHT22;11380;50.822;15.790;2023-07-08T00:04:03;15.10;99.90
22426;DHT22;11380;50.822;15.790;2023-07-08T00:09:12;15.00;99.90
22426;DHT22;11380;50.822;15.790;2023-07-08T00:14:20;14.80;99.90
22426;DHT22;11380;50.822;15.790;2023-07-08T00:19:28;14.40;1.00
22426;DHT22;11380;50.822;15.790;2023-07-08T00:24:36;14.50;99.90
22426;DHT22;11380;50.822;15.790;2023-07-08T00:29:43;14.50;99.90
22426;DHT22;11380;50.822;15.790;2023-07-08T00:34:51;14.50;99.90
22426;DHT22;11380;50.822;15.790;2023-07-08T00:39:58;14.60;99.90
22426;DHT22;11380;50.822;15.790;2023-07-08T00:50:39;14.40;99.90
22426;DHT22;11380;50.822;15.790;2023-07-08T00:55:46;14.40;99.90
22426;DHT22;11380;50.822;15.790;2023-07-08T01:00:55;14.20;99.90
22426;DHT22;11380;50.822;15.790;2023-07-08T01:06:03;14.00;99.90
22426;DHT22;11380;50.822;15.790;2023-07-08T01:11:12;13.70;99.90
22426;DHT22;11380;50.822;15.790;2023-07-08T01:16:20;13.80;1.00
22426;DHT22;11380;50.822;15.790;2023-07-08T01:21:35;13.80;1.00
22426;DHT22;11380;50.822;15.790;2023-07-08T01:26:44;13.90;1.00
22426;DHT22;11380;50.822;15.790;2023-07-08T01:31:57;13.50;1.00
22426;DHT22;11380;50.822;15.790;2023-07-08T01:37:09;13.80;1.00
22426;DHT22;11380;50.822;15.790;2023-07-08T01:42:17;13.50;1.00
22426;DHT22;11380;50.822;15.790;2023-07-08T01:47:24;13.20;1.00
22426;DHT22;11380;50.822;15.790;2023-07-08T01:52:32;13.50;1.00
22426;DHT22;11380;50.822;15.790;2023-07-08T01:57:39;13.60;1.00
22426;DHT22;11380;50.822;15.790;2023-07-08T02:02:47;13.30;1.00
22426;DHT22;11380;50.822;15.790;2023-07-08T02:07:56;13.40;1.00
22426;DHT22;11380;50.822;15.790;2023-07-08T02:13:04;13.00;1.00
22426;DHT22;11380;50.822;15.790;2023-07-08T02:18:12;13.20;1.00
22426;DHT22;11380;50.822;15.790;2023-07-08T02:23:20;12.90;1.00
22426;DHT22;11380;50.822;15.790;2023-07-08T02:28:27;12.60;1.00
22426;DHT22;11380;50.822;15.790;2023-07-08T02:33:35;12.90;1.00
22426;DHT22;11380;50.822;15.790;2023-07-08T02:38:41;12.90;1.00
22426;DHT22;11380;50.822;15.790;2023-07-08T02:43:48;12.80;1.00
22426;DHT22;11380;50.822;15.790;2023-07-08T02:48:55;12.80;1.00
22426;DHT22;11380;50.822;15.790;2023-07-08T02:54:03;13.10;1.00
22426;DHT22;11380;50.822;15.790;2023-07-08T02:59:10;13.00;1.00
22426;DHT22;11380;50.822;15.790;2023-07-08T03:04:17;12.90;1.00
22426;DHT22;11380;50.822;15.790;2023-07-08T03:09:28;13.00;1.00
22426;DHT22;11380;50.822;15.790;2023-07-08T03:14:37;13.30;1.00
22426;DHT22;11380;50.822;15.790;2023-07-08T03:19:44;13.20;1.00
22426;DHT22;11380;50.822;15.790;2023-07-08T03:24:51;12.90;1.00
22426;DHT22;11380;50.822;15.790;2023-07-08T03:29:58;13.40;1.00
22426;DHT22;11380;50.822;15.790;2023-07-08T03:35:06;13.20;1.00
22426;DHT22;11380;50.822;15.790;2023-07-08T03:40:13;13.50;1.00
22426;DHT22;11380;50.822;15.790;2023-07-08T03:45:20;13.80;1.00
22426;DHT22;11380;50.822;15.790;2023-07-08T03:50:29;14.30;1.00
22426;DHT22;11380;50.822;15.790;2023-07-08T03:55:37;14.40;1.00
22426;DHT22;11380;50.822;15.790;2023-07-08T04:00:44;14.60;1.00
22426;DHT22;11380;50.822;15.790;2023-07-08T04:05:52;14.80;1.00
22426;DHT22;11380;50.822;15.790;2023-07-08T04:10:59;14.90;1.00
22426;DHT22;11380;50.822;15.790;2023-07-08T04:16:06;15.10;1.00
22426;DHT22;11380;50.822;15.790;2023-07-08T04:21:13;15.40;1.00
22426;DHT22;11380;50.822;15.790;2023-07-08T04:26:22;15.40;1.00
22426;DHT22;11380;50.822;15.790;2023-07-08T04:31:28;15.70;1.00
22426;DHT22;11380;50.822;15.790;2023-07-08T04:36:36;16.10;1.00
22426;DHT22;11380;50.822;15.790;2023-07-08T04:41:43;16.30;99.90
22426;DHT22;11380;50.822;15.790;2023-07-08T04:46:57;16.70;1.00
22426;DHT22;11380;50.822;15.790;2023-07-08T04:52:02;17.00;1.00
22426;DHT22;11380;50.822;15.790;2023-07-08T04:57:09;17.30;99.90
22426;DHT22;11380;50.822;15.790;2023-07-08T05:02:27;17.80;99.90
22426;DHT22;11380;50.822;15.790;2023-07-08T05:07:35;17.70;99.90
22426;DHT22;11380;50.822;15.790;2023-07-08T05:12:42;18.10;99.90
22426;DHT22;11380;50.822;15.790;2023-07-08T05:17:51;18.30;99.90
22426;DHT22;11380;50.822;15.790;2023-07-08T05:22:58;18.80;99.90
22426;DHT22;11380;50.822;15.790;2023-07-08T05:28:05;18.90;1.00
22426;DHT22;11380;50.822;15.790;2023-07-08T05:33:13;19.20;1.00
22426;DHT22;11380;50.822;15.790;2023-07-08T05:38:20;19.60;81.90
22426;DHT22;11380;50.822;15.790;2023-07-08T05:43:27;20.00;1.00
22426;DHT22;11380;50.822;15.790;2023-07-08T05:48:35;20.30;1.00
22426;DHT22;11380;50.822;15.790;2023-07-08T05:53:42;20.60;1.00
22426;DHT22;11380;50.822;15.790;2023-07-08T05:58:50;20.80;1.00
22426;DHT22;11380;50.822;15.790;2023-07-08T06:03:57;21.10;1.00
22426;DHT22;11380;50.822;15.790;2023-07-08T06:09:05;21.50;99.90
22426;DHT22;11380;50.822;15.790;2023-07-08T06:14:12;21.30;99.90
22426;DHT22;11380;50.822;15.790;2023-07-08T06:19:19;21.60;99.90
22426;DHT22;11380;50.822;15.790;2023-07-08T06:24:25;21.70;1.00
22426;DHT22;11380;50.822;15.790;2023-07-08T06:29:33;22.40;1.00
22426;DHT22;11380;50.822;15.790;2023-07-08T06:34:40;22.20;99.90
22426;DHT22;11380;50.822;15.790;2023-07-08T06:39:47;22.30;1.00
22426;DHT22;11380;50.822;15.790;2023-07-08T06:44:54;23.00;99.90
22426;DHT22;11380;50.822;15.790;2023-07-08T06:50:01;23.40;99.90
22426;DHT22;11380;50.822;15.790;2023-07-08T06:55:10;23.90;99.90
22426;DHT22;11380;50.822;15.790;2023-07-08T07:00:22;24.10;99.90
22426;DHT22;11380;50.822;15.790;2023-07-08T07:05:29;24.30;99.90
22426;DHT22;11380;50.822;15.790;2023-07-08T07:10:36;24.50;1.00
22426;DHT22;11380;50.822;15.790;2023-07-08T07:15:43;24.80;99.90
22426;DHT22;11380;50.822;15.790;2023-07-08T07:20:52;25.00;99.90
22426;DHT22;11380;50.822;15.790;2023-07-08T07:26:00;25.30;3.20
22426;DHT22;11380;50.822;15.790;2023-07-08T07:31:08;25.50;1.00
22426;DHT22;11380;50.822;15.790;2023-07-08T07:36:16;25.50;1.00
22426;DHT22;11380;50.822;15.790;2023-07-08T07:41:23;25.80;99.90
22426;DHT22;11380;50.822;15.790;2023-07-08T07:46:31;26.10;1.00
22426;DHT22;11380;50.822;15.790;2023-07-08T07:51:38;26.50;99.90
22426;DHT22;11380;50.822;15.790;2023-07-08T07:56:45;26.50;1.00
22426;DHT22;11380;50.822;15.790;2023-07-08T08:01:52;26.70;1.00
22426;DHT22;11380;50.822;15.790;2023-07-08T08:06:59;27.00;99.90
22426;DHT22;11380;50.822;15.790;2023-07-08T08:12:08;27.40;1.00
22426;DHT22;11380;50.822;15.790;2023-07-08T08:17:17;27.60;72.40
22426;DHT22;11380;50.822;15.790;2023-07-08T08:22:24;27.60;99.90
22426;DHT22;11380;50.822;15.790;2023-07-08T08:27:32;28.00;99.90
22426;DHT22;11380;50.822;15.790;2023-07-08T08:32:40;27.60;1.00
22426;DHT22;11380;50.822;15.790;2023-07-08T08:37:47;27.90;1.00
22426;DHT22;11380;50.822;15.790;2023-07-08T08:43:06;28.40;1.00
22426;DHT22;11380;50.822;15.790;2023-07-08T08:48:16;28.60;1.00
22426;DHT22;11380;50.822;15.790;2023-07-08T08:53:25;27.90;1.00
22426;DHT22;11380;50.822;15.790;2023-07-08T08:58:45;28.70;99.90
22426;DHT22;11380;50.822;15.790;2023-07-08T09:04:15;28.80;99.90
22426;DHT22;11380;50.822;15.790;2023-07-08T09:09:30;28.40;90.10
22426;DHT22;11380;50.822;15.790;2023-07-08T09:14:38;28.70;92.30
22426;DHT22;11380;50.822;15.790;2023-07-08T09:25:25;29.20;99.90
22426;DHT22;11380;50.822;15.790;2023-07-08T09:30:37;29.40;99.90
22426;DHT22;11380;50.822;15.790;2023-07-08T09:35:46;29.40;99.90
22426;DHT22;11380;50.822;15.790;2023-07-08T09:40:54;29.30;99.90
22426;DHT22;11380;50.822;15.790;2023-07-08T09:46:01;30.00;99.90
22426;DHT22;11380;50.822;15.790;2023-07-08T09:51:09;30.30;99.90
22426;DHT22;11380;50.822;15.790;2023-07-08T09:56:17;30.30;99.90
22426;DHT22;11380;50.822;15.790;2023-07-08T10:01:26;30.40;99.90
22426;DHT22;11380;50.822;15.790;2023-07-08T10:06:34;30.30;99.90
22426;DHT22;11380;50.822;15.790;2023-07-08T10:11:44;29.70;99.90
22426;DHT22;11380;50.822;15.790;2023-07-08T10:16:56;30.10;99.90
22426;DHT22;11380;50.822;15.790;2023-07-08T10:44:21;30.30;99.90
22426;DHT22;11380;50.822;15.790;2023-07-08T10:50:04;30.20;99.90
22426;DHT22;11380;50.822;15.790;2023-07-08T10:55:42;29.90;99.90
22426;DHT22;11380;50.822;15.790;2023-07-08T11:00:58;30.80;99.90
22426;DHT22;11380;50.822;15.790;2023-07-08T11:06:15;30.20;1.00
22426;DHT22;11380;50.822;15.790;2023-07-08T11:17:04;29.80;1.00
22426;DHT22;11380;50.822;15.790;2023-07-08T11:22:24;30.30;99.90
22426;DHT22;11380;50.822;15.790;2023-07-08T11:27:35;29.50;1.00
22426;DHT22;11380;50.822;15.790;2023-07-08T11:32:47;29.40;1.00
22426;DHT22;11380;50.822;15.790;2023-07-08T11:37:55;29.20;1.00
22426;DHT22;11380;50.822;15.790;2023-07-08T11:43:05;29.30;1.00
22426;DHT22;11380;50.822;15.790;2023-07-08T11:48:29;29.80;1.00
22426;DHT22;11380;50.822;15.790;2023-07-08T11:53:49;29.50;1.00
22426;DHT22;11380;50.822;15.790;2023-07-08T11:59:11;30.40;1.00
22426;DHT22;11380;50.822;15.790;2023-07-08T12:04:34;30.80;1.00
22426;DHT22;11380;50.822;15.790;2023-07-08T12:09:47;30.50;58.70
22426;DHT22;11380;50.822;15.790;2023-07-08T12:15:26;30.20;1.00
22426;DHT22;11380;50.822;15.790;2023-07-08T12:20:37;30.60;1.00
22426;DHT22;11380;50.822;15.790;2023-07-08T12:25:46;30.60;1.00
22426;DHT22;11380;50.822;15.790;2023-07-08T12:30:53;30.30;1.00
22426;DHT22;11380;50.822;15.790;2023-07-08T12:36:03;29.90;1.00
22426;DHT22;11380;50.822;15.790;2023-07-08T12:41:25;30.90;1.00
22426;DHT22;11380;50.822;15.790;2023-07-08T12:46:39;30.50;1.00
22426;DHT22;11380;50.822;15.790;2023-07-08T12:51:47;30.20;1.00
22426;DHT22;11380;50.822;15.790;2023-07-08T12:56:55;31.00;74.80
22426;DHT22;11380;50.822;15.790;2023-07-08T13:02:03;31.10;6.30
22426;DHT22;11380;50.822;15.790;2023-07-08T13:12:47;31.00;99.90
22426;DHT22;11380;50.822;15.790;2023-07-08T13:17:57;30.30;99.90
22426;DHT22;11380;50.822;15.790;2023-07-08T13:23:04;29.70;99.90
22426;DHT22;11380;50.822;15.790;2023-07-08T13:28:27;30.00;99.90
22426;DHT22;11380;50.822;15.790;2023-07-08T13:33:37;30.00;99.90
22426;DHT22;11380;50.822;15.790;2023-07-08T13:38:45;30.30;99.90
22426;DHT22;11380;50.822;15.790;2023-07-08T13:43:52;30.20;99.90
22426;DHT22;11380;50.822;15.790;2023-07-08T13:49:10;30.00;99.90
22426;DHT22;11380;50.822;15.790;2023-07-08T13:54:41;29.80;99.90
22426;DHT22;11380;50.822;15.790;2023-07-08T13:59:42;30.10;99.90
22426;DHT22;11380;50.822;15.790;2023-07-08T14:04:52;30.30;99.90
22426;DHT22;11380;50.822;15.790;2023-07-08T14:10:00;30.00;99.90
22426;DHT22;11380;50.822;15.790;2023-07-08T14:15:07;29.90;99.90
22426;DHT22;11380;50.822;15.790;2023-07-08T14:20:17;30.10;99.90
22426;DHT22;11380;50.822;15.790;2023-07-08T14:25:24;29.80;99.90
22426;DHT22;11380;50.822;15.790;2023-07-08T14:30:33;30.00;99.90
22426;DHT22;11380;50.822;15.790;2023-07-08T14:35:42;30.20;99.90
22426;DHT22;11380;50.822;15.790;2023-07-08T14:40:49;30.50;99.90
22426;DHT22;11380;50.822;15.790;2023-07-08T14:46:04;30.60;99.90
22426;DHT22;11380;50.822;15.790;2023-07-08T14:51:09;29.70;99.90
22426;DHT22;11380;50.822;15.790;2023-07-08T14:56:17;29.50;99.90
22426;DHT22;11380;50.822;15.790;2023-07-08T15:01:24;29.00;99.90
22426;DHT22;11380;50.822;15.790;2023-07-08T15:06:33;29.00;99.90
22426;DHT22;11380;50.822;15.790;2023-07-08T15:11:42;29.20;99.90
22426;DHT22;11380;50.822;15.790;2023-07-08T15:16:51;29.20;99.90
22426;DHT22;11380;50.822;15.790;2023-07-08T15:21:59;29.00;99.90
22426;DHT22;11380;50.822;15.790;2023-07-08T15:27:12;28.90;99.90
22426;DHT22;11380;50.822;15.790;2023-07-08T15:32:19;29.40;95.30
22426;DHT22;11380;50.822;15.790;2023-07-08T15:37:29;29.20;91.70
22426;DHT22;11380;50.822;15.790;2023-07-08T15:42:36;29.30;1.00
22426;DHT22;11380;50.822;15.790;2023-07-08T15:47:43;29.30;92.50
22426;DHT22;11380;50.822;15.790;2023-07-08T15:52:51;28.80;99.90
22426;DHT22;11380;50.822;15.790;2023-07-08T15:58:01;28.80;99.90
22426;DHT22;11380;50.822;15.790;2023-07-08T16:03:23;28.40;99.90
22426;DHT22;11380;50.822;15.790;2023-07-08T16:08:35;28.40;99.90
22426;DHT22;11380;50.822;15.790;2023-07-08T16:13:44;28.10;99.90
22426;DHT22;11380;50.822;15.790;2023-07-08T16:18:54;28.50;99.90
22426;DHT22;11380;50.822;15.790;2023-07-08T16:24:01;28.30;99.90
22426;DHT22;11380;50.822;15.790;2023-07-08T16:29:13;28.20;62.10
22426;DHT22;11380;50.822;15.790;2023-07-08T16:34:22;28.30;99.90
22426;DHT22;11380;50.822;15.790;2023-07-08T16:39:29;28.00;99.90
22426;DHT22;11380;50.822;15.790;2023-07-08T16:44:37;28.00;99.90
22426;DHT22;11380;50.822;15.790;2023-07-08T16:49:43;28.00;99.90
22426;DHT22;11380;50.822;15.790;2023-07-08T16:54:50;28.20;99.90
22426;DHT22;11380;50.822;15.790;2023-07-08T16:59:57;28.10;99.90
22426;DHT22;11380;50.822;15.790;2023-07-08T17:05:17;28.40;99.90
22426;DHT22;11380;50.822;15.790;2023-07-08T17:10:21;28.40;52.90
22426;DHT22;11380;50.822;15.790;2023-07-08T17:15:30;28.40;18.00
22426;DHT22;11380;50.822;15.790;2023-07-08T17:20:39;28.10;99.90
22426;DHT22;11380;50.822;15.790;2023-07-08T17:25:46;28.00;90.50
22426;DHT22;11380;50.822;15.790;2023-07-08T17:30:54;28.00;98.00
22426;DHT22;11380;50.822;15.790;2023-07-08T17:36:04;27.70;35.50
22426;DHT22;11380;50.822;15.790;2023-07-08T17:41:13;27.40;99.90
22426;DHT22;11380;50.822;15.790;2023-07-08T17:46:24;27.10;99.90
22426;DHT22;11380;50.822;15.790;2023-07-08T17:51:32;26.90;99.90
22426;DHT22;11380;50.822;15.790;2023-07-08T17:56:43;26.90;79.40
22426;DHT22;11380;50.822;15.790;2023-07-08T18:01:52;26.70;86.60
22426;DHT22;11380;50.822;15.790;2023-07-08T18:07:00;26.30;71.00
22426;DHT22;11380;50.822;15.790;2023-07-08T18:12:09;25.70;45.90
22426;DHT22;11380;50.822;15.790;2023-07-08T18:17:18;25.50;95.60
22426;DHT22;11380;50.822;15.790;2023-07-08T18:22:24;25.30;36.90
22426;DHT22;11380;50.822;15.790;2023-07-08T18:27:32;24.90;89.70
22426;DHT22;11380;50.822;15.790;2023-07-08T18:32:40;24.70;93.70
22426;DHT22;11380;50.822;15.790;2023-07-08T18:37:49;24.50;47.20
22426;DHT22;11380;50.822;15.790;2023-07-08T18:43:20;24.50;49.20
22426;DHT22;11380;50.822;15.790;2023-07-08T18:48:28;23.90;65.40
22426;DHT22;11380;50.822;15.790;2023-07-08T18:53:36;23.70;1.00
22426;DHT22;11380;50.822;15.790;2023-07-08T18:58:45;23.50;1.00
22426;DHT22;11380;50.822;15.790;2023-07-08T19:03:54;23.40;1.00
22426;DHT22;11380;50.822;15.790;2023-07-08T19:09:03;23.20;1.00
22426;DHT22;11380;50.822;15.790;2023-07-08T19:14:13;23.30;1.00
22426;DHT22;11380;50.822;15.790;2023-07-08T19:19:22;22.40;1.00
22426;DHT22;11380;50.822;15.790;2023-07-08T19:24:29;21.90;1.00
22426;DHT22;11380;50.822;15.790;2023-07-08T19:29:38;21.70;1.00
22426;DHT22;11380;50.822;15.790;2023-07-08T19:34:47;21.80;1.00
22426;DHT22;11380;50.822;15.790;2023-07-08T19:39:55;22.20;1.00
22426;DHT22;11380;50.822;15.790;2023-07-08T19:45:02;22.20;1.00
22426;DHT22;11380;50.822;15.790;2023-07-08T19:50:10;22.30;1.00
22426;DHT22;11380;50.822;15.790;2023-07-08T19:55:18;22.00;1.00
22426;DHT22;11380;50.822;15.790;2023-07-08T20:00:39;21.60;1.00
22426;DHT22;11380;50.822;15.790;2023-07-08T20:05:48;21.50;1.00
22426;DHT22;11380;50.822;15.790;2023-07-08T20:10:55;21.60;1.00
22426;DHT22;11380;50.822;15.790;2023-07-08T20:16:18;21.30;1.00
22426;DHT22;11380;50.822;15.790;2023-07-08T20:21:22;21.00;1.00
22426;DHT22;11380;50.822;15.790;2023-07-08T20:26:33;21.10;1.00
22426;DHT22;11380;50.822;15.790;2023-07-08T20:31:41;20.70;1.00
22426;DHT22;11380;50.822;15.790;2023-07-08T20:36:49;20.10;1.00
22426;DHT22;11380;50.822;15.790;2023-07-08T20:41:56;20.10;1.00
22426;DHT22;11380;50.822;15.790;2023-07-08T20:47:03;20.30;1.00
22426;DHT22;11380;50.822;15.790;2023-07-08T20:52:11;20.50;1.00
22426;DHT22;11380;50.822;15.790;2023-07-08T20:57:22;20.30;1.00
22426;DHT22;11380;50.822;15.790;2023-07-08T21:02:29;20.20;1.00
22426;DHT22;11380;50.822;15.790;2023-07-08T21:07:37;19.60;1.00
22426;DHT22;11380;50.822;15.790;2023-07-08T21:12:46;19.70;1.00
22426;DHT22;11380;50.822;15.790;2023-07-08T21:17:54;19.50;1.00
22426;DHT22;11380;50.822;15.790;2023-07-08T21:23:14;19.60;1.00
22426;DHT22;11380;50.822;15.790;2023-07-08T21:28:31;19.20;1.00
22426;DHT22;11380;50.822;15.790;2023-07-08T21:33:41;18.80;9.10
22426;DHT22;11380;50.822;15.790;2023-07-08T21:38:50;19.10;1.00
22426;DHT22;11380;50.822;15.790;2023-07-08T21:43:58;18.80;99.90
22426;DHT22;11380;50.822;15.790;2023-07-08T21:49:07;18.70;99.90
22426;DHT22;11380;50.822;15.790;2023-07-08T21:54:14;18.70;99.90
22426;DHT22;11380;50.822;15.790;2023-07-08T21:59:22;18.70;1.00
22426;DHT22;11380;50.822;15.790;2023-07-08T22:04:34;18.60;1.00
22426;DHT22;11380;50.822;15.790;2023-07-08T22:09:44;18.10;1.00
22426;DHT22;11380;50.822;15.790;2023-07-08T22:14:51;18.10;1.00
22426;DHT22;11380;50.822;15.790;2023-07-08T22:19:59;17.80;1.00
22426;DHT22;11380;50.822;15.790;2023-07-08T22:25:19;17.80;1.00
22426;DHT22;11380;50.822;15.790;2023-07-08T22:30:27;17.70;1.00
22426;DHT22;11380;50.822;15.790;2023-07-08T22:35:35;17.60;99.90
22426;DHT22;11380;50.822;15.790;2023-07-08T22:40:45;17.40;99.90
22426;DHT22;11380;50.822;15.790;2023-07-08T22:45:55;17.30;99.90
22426;DHT22;11380;50.822;15.790;2023-07-08T22:51:04;17.20;1.00
22426;DHT22;11380;50.822;15.790;2023-07-08T22:56:15;16.90;1.00
22426;DHT22;11380;50.822;15.790;2023-07-08T23:01:22;16.80;1.00
22426;DHT22;11380;50.822;15.790;2023-07-08T23:06:30;16.90;1.00
22426;DHT22;11380;50.822;15.790;2023-07-08T23:11:38;17.00;1.00
22426;DHT22;11380;50.822;15.790;2023-07-08T23:16:46;16.90;1.00
22426;DHT22;11380;50.822;15.790;2023-07-08T23:21:54;17.00;1.00
22426;DHT22;11380;50.822;15.790;2023-07-08T23:27:03;17.00;1.00
22426;DHT22;11380;50.822;15.790;2023-07-08T23:32:14;16.80;6.10
22426;DHT22;11380;50.822;15.790;2023-07-08T23:37:24;17.10;1.00
22426;DHT22;11380;50.822;15.790;2023-07-08T23:42:36;16.90;72.10
22426;DHT22;11380;50.822;15.790;2023-07-08T23:47:44;17.10;99.90
22426;DHT22;11380;50.822;15.790;2023-07-08T23:52:51;16.90;99.90
22426;DHT22;11380;50.822;15.790;2023-07-08T23:57:59;16.80;99.90
